GRZ571 Details

Departure: Cold Bay Airport (PACD)
Arrival: King Salmon Airport (PAKN)
Route: CDB J115 AKN


Current Weather Information
PACD 230707Z AUTO 29021KT 8SM RA FEW017 SCT022 OVC029 06/04 A2889 RMK AO2 PK WND 30027/0702 P0001 T00610044 TSNO
PAKN 230654Z 08027G46KT 10SM -RA OVC065 08/04 A2891 RMK PK WND 10049/0637 SLP791 P0000 T00780039 VIA AUTODIAL